ADDS METAR Data INFO
IDs: Format: Raw Decoded Include TAF

Data at: 1315 UTC 11 Dec 2017

KGHW 111255Z AUTO 28008KT 10SM SCT100 M01/M02 A2972 RMK AO2
KGHW 111235Z AUTO 28009KT 10SM BKN100 M01/M03 A2971 RMK AO2
KGHW 111215Z AUTO 27008KT 10SM CLR M02/M03 A2971 RMK AO2
KGHW 111155Z AUTO 27007KT 10SM CLR M01/M03 A2970 RMK AO2
KGHW 111135Z AUTO 26008KT 10SM CLR M02/M03 A2970 RMK AO2
KGHW 111115Z AUTO 26007KT 10SM CLR M02/M03 A2970 RMK AO2
KGHW 111055Z AUTO 24006KT 10SM CLR M03/M03 A2970 RMK AO2
KGHW 111035Z AUTO 22005KT 10SM SCT031 M02/M03 A2970 RMK AO2
KGHW 111015Z AUTO 24007KT 10SM SCT120 M02/M03 A2970 RMK AO2
KGHW 110955Z AUTO 17004KT 7SM UP SCT030 BKN038 M01/M02 A2970 RMK AO2 P0001
KGHW 110935Z AUTO 21004KT 7SM UP SCT038 SCT100 M03/M03 A2973 RMK AO2
KGHW 110915Z AUTO 21006KT 10SM CLR M04/M04 A2974 RMK AO2
KGHW 110855Z AUTO 20006KT 10SM CLR M04/M05 A2975 RMK AO2
KGHW 110835Z AUTO 20005KT 10SM CLR M04/M05 A2976 RMK AO2
KGHW 110815Z AUTO 19004KT 10SM CLR M03/M04 A2977 RMK AO2
KGHW 110755Z AUTO 21004KT 10SM CLR M03/M04 A2979 RMK AO2
KGHW 110735Z AUTO 19004KT 10SM CLR M03/M05 A2979 RMK AO2
KGHW 110715Z AUTO 17007KT 10SM CLR M03/M04 A2980 RMK AO2
KGHW 110655Z AUTO 18005KT 10SM CLR M02/M03 A2982 RMK AO2
KGHW 110635Z AUTO 19005KT 10SM CLR M02/M03 A2983 RMK AO2
KGHW 110615Z AUTO 17006KT 10SM CLR M02/M03 A2984 RMK AO2
KGHW 110555Z AUTO 20003KT 7SM -SN CLR M02/M03 A2986 RMK AO2 P0001
KGHW 110535Z AUTO 18004KT 2SM -SN BKN008 BKN025 M03/M03 A2987 RMK AO2 P0001
KGHW 110515Z AUTO 22006KT 1 1/2SM UP OVC008 M03/M03 A2990 RMK AO2
KGHW 110455Z AUTO 21005KT 1 1/2SM -SN OVC006 M03/M03 A2990 RMK AO2 P0001
KGHW 110435Z AUTO 20006KT 2 1/2SM -SN SCT006 M02/M04 A2990 RMK AO2
KGHW 110415Z AUTO 17005KT 4SM -SN SCT022 M02/M04 A2989 RMK AO2
KGHW 110355Z AUTO 19004KT 10SM BKN022 BKN036 OVC075 M02/M04 A2992 RMK AO2
KGHW 110335Z AUTO 20004KT 10SM SCT049 SCT060 BKN075 M02/M04 A2994 RMK AO2
KGHW 110315Z AUTO 20003KT 10SM CLR M02/M04 A2994 RMK AO2
KGHW 110255Z AUTO 20004KT 10SM CLR M03/M04 A2995 RMK AO2
KGHW 110235Z AUTO 00000KT 10SM CLR M03/M05 A2995 RMK AO2
KGHW 110215Z AUTO 19003KT 10SM CLR M03/M05 A2996 RMK AO2
KGHW 110155Z AUTO 19003KT 10SM CLR M03/M06 A2996 RMK AO2
KGHW 110135Z AUTO 00000KT 10SM CLR M04/M06 A2997 RMK AO2
KGHW 110115Z AUTO 00000KT 10SM CLR M03/M06 A2998 RMK AO2
KGHW 110055Z AUTO 24003KT 10SM CLR M03/M06 A3000 RMK AO2
KGHW 110035Z AUTO 00000KT 10SM CLR M03/M06 A3000 RMK AO2
KGHW 110015Z AUTO 27003KT 10SM CLR M03/M06 A3002 RMK AO2
KGHW 102355Z AUTO 29005KT 10SM CLR M03/M06 A3002 RMK AO2
KGHW 102335Z AUTO 26003KT 10SM CLR M02/M06 A3002 RMK AO2
KGHW 102315Z AUTO 29003KT 10SM CLR M02/M06 A3003 RMK AO2
KGHW 102255Z AUTO 30003KT 10SM SCT090 M02/M06 A3002 RMK AO2
KGHW 102235Z AUTO 28005KT 10SM SCT090 M02/M06 A3002 RMK AO2
KGHW 102215Z AUTO 29006KT 10SM SCT090 M02/M06 A3002 RMK AO2
KGHW 102155Z AUTO 29006KT 10SM CLR M02/M06 A3002 RMK AO2
KGHW 102135Z AUTO 30007KT 10SM SCT100 M02/M06 A3001 RMK AO2
KGHW 102115Z AUTO 30010KT 10SM SCT110 M01/M06 A3001 RMK AO2
KGHW 102055Z AUTO 29007KT 10SM SCT110 M02/M06 A3001 RMK AO2
KGHW 102035Z AUTO 31008KT 10SM CLR M02/M06 A3000 RMK AO2
KGHW 102015Z AUTO 29010KT 10SM CLR M01/M06 A300 RMK AO2
KGHW 101955Z AUTO 29000KT 10SM CLR M02/M06 A3000 RMK AO2
KGHW 101935Z AUTO 31008KT 10SM SCT110 M02/M06 A3001 RMK AO2
KGHW 101915Z AUTO 30008KT 10SM CLR M02/M06 A3001 RMK AO2
KGHW 101855Z AUTO 29007KT 10SM CLR M03/M06 A3000 RMK AO2
KGHW 101835Z AUTO 31010KT 10SM CLR M02/M06 A3003 RMK AO2
KGHW 101815Z AUTO 30007KT 10SM CLR M03/M06 A3001 RMK AO2
KGHW 101755Z AUTO 30008KT 10SM CLR M02/M06 A3002 RMK AO2
KGHW 101735Z AUTO 29007KT 10SM CLR M03/M06 A3002 RMK AO2
KGHW 101715Z AUTO 29009KT 10SM CLR M03/M06 A3001 RMK AO2
KGHW 101655Z AUTO 29008KT 10SM SCT011 M04/M06 A3001 RMK AO2
KGHW 101635Z AUTO 30010KT 10SM SCT011 M04/M06 A3000 RMK AO2
KGHW 101615Z AUTO 30006KT 10SM CLR M04/M06 A3000 RMK AO2
KGHW 101555Z AUTO 33006KT 10SM CLR M04/M06 A2998 RMK AO2
KGHW 101535Z AUTO 34007KT 10SM SCT011 M04/M06 A2998 RMK AO2
KGHW 101515Z AUTO 34009KT 10SM SCT011 M04/M06 A2999 RMK AO2
KGHW 101455Z AUTO 33010KT 10SM CLR M04/M06 A2999 RMK AO2
KGHW 101435Z AUTO 33007KT 10SM CLR M04/M06 A2997 RMK AO2
KGHW 101415Z AUTO 32006KT 10SM CLR M04/M06 A2996 RMK AO2
KGHW 101355Z AUTO 34009KT 10SM CLR M04/M06 A2996 RMK AO2
KGHW 101335Z AUTO 32008KT 10SM CLR M04/M06 A2996 RMK AO2
KGHW 101315Z AUTO 33008KT 10SM CLR M04/M06 A2995 RMK AO2
KGHW 101255Z AUTO 34011KT 10SM CLR M04/M06 A2995 RMK AO2
KGHW 101235Z AUTO 32005KT 10SM CLR M05/M07 A2994 RMK AO2
KGHW 101215Z AUTO 31007KT 10SM CLR M05/M07 A2993 RMK AO2
KGHW 101155Z AUTO 31008KT 10SM CLR M04/M06 A2992 RMK AO2
KGHW 101135Z AUTO 31011KT 10SM CLR M04/M06 A2991 RMK AO2
KGHW 101115Z AUTO 31011KT 10SM CLR M03/M06 A2991 RMK AO2
KGHW 101055Z AUTO 30012KT 10SM CLR M03/M06 A2990 RMK AO2
KGHW 101035Z AUTO 31010G15KT 10SM CLR M03/M06 A2988 RMK AO2
KGHW 101015Z AUTO 30010KT 10SM CLR M03/M06 A2987 RMK AO2
KGHW 100955Z AUTO 31010KT 10SM CLR M03/M06 A2986 RMK AO2
KGHW 100935Z AUTO 31012KT 10SM CLR M03/M06 A2985 RMK AO2
KGHW 100915Z AUTO 31009KT 10SM CLR M03/M05 A2985 RMK AO2
KGHW 100855Z AUTO 31011G14KT 10SM CLR M03/M06 A2984 RMK AO2
KGHW 100835Z AUTO 31012G16KT 10SM CLR M03/M05 A2984 RMK AO2
KGHW 100815Z AUTO 31012KT 10SM CLR M03/M05 A2983 RMK AO2
KGHW 100755Z AUTO 30011KT 10SM CLR M03/M06 A2982 RMK AO2
KGHW 100735Z AUTO 31011KT 10SM CLR M03/M05 A2982 RMK AO2
KGHW 100715Z AUTO 31013G17KT 10SM CLR M03/M05 A2981 RMK AO2
KGHW 100655Z AUTO 31011KT 10SM CLR M04/M06 A2980 RMK AO2
KGHW 100635Z AUTO 27009KT 10SM CLR M05/M06 A2979 RMK AO2
KGHW 100615Z AUTO 28011KT 10SM CLR M04/M06 A2978 RMK AO2
KGHW 100555Z AUTO 27012KT 10SM CLR M05/M06 A2978 RMK AO2
KGHW 100535Z AUTO 25009KT 10SM CLR M04/M06 A2978 RMK AO2
KGHW 100515Z AUTO 24011KT 10SM CLR M06/M06 A2978 RMK AO2
KGHW 100455Z AUTO 21008KT 10SM CLR M07/M08 A2979 RMK AO2
KGHW 100435Z AUTO 21008KT 10SM CLR M07/M08 A2979 RMK AO2
KGHW 100415Z AUTO 21011KT 10SM CLR M06/M08 A2980 RMK AO2
KGHW 100355Z AUTO 22010KT 10SM CLR M06/M08 A2981 RMK AO2
KGHW 100335Z AUTO 21010KT 10SM CLR M06/M08 A2982 RMK AO2
KGHW 100315Z AUTO 21012G17KT 10SM CLR M06/M08 A2981 RMK AO2
KGHW 100255Z AUTO 20011KT 10SM CLR M06/M08 A2984 RMK AO2
KGHW 100235Z AUTO 20010KT 10SM CLR M06/M08 A2986 RMK AO2
KGHW 100215Z AUTO 20013KT 10SM CLR M06/M08 A2986 RMK AO2
KGHW 100155Z AUTO 20013KT 10SM CLR M06/M08 A2987 RMK AO2
KGHW 100135Z AUTO 20011G14KT 10SM CLR M06/M08 A2989 RMK AO2